createdAt,value
2019-06-08T00:05:10.589Z,721
2019-06-08T00:10:25.594Z,734
2019-06-08T00:15:36.584Z,739
2019-06-08T00:20:47.882Z,736
2019-06-08T00:25:59.440Z,715
2019-06-08T00:31:10.990Z,713
2019-06-08T00:36:22.979Z,758
2019-06-08T00:41:33.787Z,787
2019-06-08T00:46:44.525Z,818
2019-06-08T00:51:56.166Z,855
2019-06-08T00:57:07.678Z,877
2019-06-08T01:02:20.068Z,899
2019-06-08T01:07:31.602Z,876
2019-06-08T01:12:42.895Z,894
2019-06-08T01:18:02.469Z,890
2019-06-08T01:23:15.267Z,901
2019-06-08T01:28:28.008Z,931
2019-06-08T01:33:39.180Z,941
2019-06-08T01:38:50.876Z,929
2019-06-08T01:44:02.164Z,931
2019-06-08T01:49:13.725Z,939
2019-06-08T01:54:25.295Z,973
2019-06-08T01:59:37.725Z,968
2019-06-08T02:04:49.289Z,947
2019-06-08T02:10:00.588Z,964
2019-06-08T02:15:11.916Z,957
2019-06-08T02:20:23.484Z,977
2019-06-08T02:25:35.663Z,950
2019-06-08T02:30:46.437Z,947
2019-06-08T02:35:58.001Z,964
2019-06-08T02:41:09.646Z,972
2019-06-08T02:46:21.171Z,973
2019-06-08T02:51:34.232Z,960
2019-06-08T02:56:48.570Z,976
2019-06-08T03:01:59.849Z,1001
2019-06-08T03:07:11.166Z,1005
2019-06-08T03:12:22.438Z,1028
2019-06-08T03:17:35.436Z,1023
2019-06-08T03:22:50.471Z,1003
2019-06-08T03:28:01.761Z,996
2019-06-08T03:33:13.328Z,1005
2019-06-08T03:38:27.453Z,988
2019-06-08T03:43:40.611Z,990
2019-06-08T03:48:53.585Z,1007
2019-06-08T03:54:05.155Z,996
2019-06-08T03:59:16.436Z,979
2019-06-08T04:04:28.009Z,985
2019-06-08T04:09:39.780Z,1010
2019-06-08T04:14:53.932Z,954
2019-06-08T04:20:10.845Z,946
2019-06-08T04:25:23.381Z,962
2019-06-08T04:30:34.677Z,978
2019-06-08T04:35:47.131Z,965
2019-06-08T04:40:58.306Z,926
2019-06-08T04:46:09.881Z,930
2019-06-08T04:51:21.167Z,924
2019-06-08T04:56:32.742Z,942
2019-06-08T05:01:45.072Z,964
2019-06-08T05:07:01.047Z,975
2019-06-08T05:12:12.627Z,928
2019-06-08T05:17:23.909Z,913
2019-06-08T05:22:35.475Z,919
2019-06-08T05:27:47.330Z,858
2019-06-08T05:32:58.665Z,874
2019-06-08T05:38:10.222Z,874
2019-06-08T05:43:21.506Z,869
2019-06-08T05:48:39.704Z,869
2019-06-08T05:53:56.367Z,885
2019-06-08T05:59:07.932Z,874
2019-06-08T06:04:19.509Z,892
2019-06-08T06:09:31.083Z,928
2019-06-08T06:14:42.833Z,951
2019-06-08T06:19:54.104Z,964
2019-06-08T06:25:05.696Z,995
2019-06-08T06:30:17.239Z,1020
2019-06-08T06:35:28.805Z,1035
2019-06-08T06:40:40.089Z,995
2019-06-08T06:45:52.806Z,973
2019-06-08T06:51:04.337Z,971
2019-06-08T06:56:15.906Z,958
2019-06-08T07:01:29.942Z,924
2019-06-08T07:06:41.471Z,770
2019-06-08T07:11:52.981Z,764
2019-06-08T07:17:06.930Z,793
2019-06-08T07:22:17.938Z,755
2019-06-08T07:27:29.493Z,722
2019-06-08T07:32:41.056Z,677
2019-06-08T07:37:53.670Z,654
2019-06-08T07:43:05.925Z,637
2019-06-08T07:48:17.479Z,596
2019-06-08T07:53:29.045Z,582
2019-06-08T07:58:40.615Z,577
2019-06-08T08:03:52.190Z,576
2019-06-08T08:09:03.197Z,564
2019-06-08T08:14:14.780Z,553
2019-06-08T08:19:26.349Z,540
2019-06-08T08:24:38.608Z,516
2019-06-08T08:29:51.336Z,489
2019-06-08T08:35:03.550Z,472
2019-06-08T08:40:14.286Z,464
2019-06-08T08:45:27.471Z,490
2019-06-08T08:56:02.454Z,499
2019-06-08T09:01:13.595Z,477
2019-06-08T09:06:27.814Z,454
2019-06-08T09:11:41.160Z,444
2019-06-08T09:16:53.603Z,449
2019-06-08T09:22:12.141Z,452
2019-06-08T09:27:23.941Z,452
2019-06-08T09:32:35.225Z,454
2019-06-08T09:37:48.851Z,453
2019-06-08T09:43:05.981Z,450
2019-06-08T09:48:24.901Z,454
2019-06-08T09:53:41.872Z,451
2019-06-08T09:58:55.902Z,448
2019-06-08T10:04:16.657Z,444
2019-06-08T10:09:28.362Z,450
2019-06-08T10:14:40.018Z,462
2019-06-08T10:19:51.299Z,460
2019-06-08T10:25:05.501Z,453
2019-06-08T10:30:22.409Z,458
2019-06-08T10:35:33.999Z,467
2019-06-08T10:40:45.053Z,467
2019-06-08T10:46:02.788Z,463
2019-06-08T10:51:33.125Z,456
2019-06-08T10:56:44.637Z,449
2019-06-08T11:02:02.484Z,442
2019-06-08T11:07:24.475Z,448
2019-06-08T11:12:37.551Z,452
2019-06-08T11:17:48.963Z,451
2019-06-08T11:23:02.037Z,459
2019-06-08T11:28:18.421Z,468
2019-06-08T11:33:30.458Z,473
2019-06-08T11:38:41.524Z,461
2019-06-08T11:43:53.127Z,461
2019-06-08T11:49:06.499Z,472
2019-06-08T11:54:34.005Z,485
2019-06-08T11:59:51.857Z,494
2019-06-08T12:05:03.767Z,508
2019-06-08T12:10:15.052Z,521
2019-06-08T12:15:28.719Z,532
2019-06-08T12:20:39.974Z,543
2019-06-08T12:25:51.587Z,548
2019-06-08T12:31:03.134Z,557
2019-06-08T12:36:17.022Z,562
2019-06-08T12:41:32.491Z,557
2019-06-08T12:46:44.007Z,581
2019-06-08T12:51:57.888Z,560
2019-06-08T12:57:12.450Z,542
2019-06-08T13:02:30.825Z,551
2019-06-08T13:07:42.342Z,549
2019-06-08T13:12:53.634Z,565
2019-06-08T13:18:05.048Z,560
2019-06-08T13:23:19.312Z,569
2019-06-08T13:28:32.222Z,579
2019-06-08T13:33:43.854Z,569
2019-06-08T13:38:55.449Z,565
2019-06-08T13:44:08.220Z,512
2019-06-08T13:49:25.251Z,510
2019-06-08T13:54:41.369Z,500
2019-06-08T13:59:57.815Z,503
2019-06-08T14:05:08.924Z,534
2019-06-08T14:10:22.128Z,559
2019-06-08T14:15:38.419Z,581
2019-06-08T14:20:49.980Z,629
2019-06-08T14:26:05.453Z,671
2019-06-08T14:31:21.892Z,687
2019-06-08T14:36:41.854Z,666
2019-06-08T14:41:53.451Z,638
2019-06-08T14:47:05.081Z,622
2019-06-08T14:52:20.650Z,605
2019-06-08T14:57:37.438Z,591
2019-06-08T15:02:51.148Z,581
2019-06-08T15:08:02.742Z,577
2019-06-08T15:13:13.808Z,576
2019-06-08T15:18:25.832Z,570
2019-06-08T15:23:42.115Z,566
2019-06-08T15:28:53.767Z,560
2019-06-08T15:34:05.299Z,562
2019-06-08T15:39:21.613Z,560
2019-06-08T15:44:34.253Z,563
2019-06-08T15:49:45.521Z,560
2019-06-08T15:55:01.629Z,560
2019-06-08T16:00:13.403Z,603
2019-06-08T16:05:25.571Z,620
2019-06-08T16:10:39.941Z,616
2019-06-08T16:15:50.953Z,644
2019-06-08T16:21:02.244Z,640
2019-06-08T16:26:13.531Z,631
2019-06-08T16:31:24.257Z,620
2019-06-08T16:36:35.674Z,534
2019-06-08T16:41:46.965Z,473
2019-06-08T16:46:58.739Z,461
2019-06-08T16:52:09.478Z,461
2019-06-08T16:57:20.478Z,453
2019-06-08T17:02:32.585Z,463
2019-06-08T17:07:47.925Z,476
2019-06-08T17:12:59.482Z,466
2019-06-08T17:18:11.064Z,452
2019-06-08T17:23:22.361Z,439
2019-06-08T17:28:34.911Z,437
2019-06-08T17:33:47.975Z,440
2019-06-08T17:38:59.494Z,440
2019-06-08T17:44:11.051Z,440
2019-06-08T17:49:22.709Z,448
2019-06-08T17:54:34.674Z,460
2019-06-08T17:59:47.215Z,472
2019-06-08T18:04:58.972Z,465
2019-06-08T18:10:10.343Z,463
2019-06-08T18:15:21.864Z,470
2019-06-08T18:20:34.259Z,466
2019-06-08T18:25:49.005Z,471
2019-06-08T18:31:00.320Z,467
2019-06-08T18:36:11.041Z,468
2019-06-08T18:41:22.332Z,470
2019-06-08T18:46:33.601Z,471
2019-06-08T18:51:49.109Z,474
2019-06-08T18:57:00.211Z,467
2019-06-08T19:02:11.772Z,468
2019-06-08T19:07:23.059Z,468
2019-06-08T19:12:34.627Z,470
2019-06-08T19:17:54.379Z,580
2019-06-08T19:23:08.966Z,536
2019-06-08T19:28:35.126Z,514
2019-06-08T19:33:58.038Z,531
2019-06-08T19:39:20.022Z,565
2019-06-08T19:44:31.548Z,578
2019-06-08T19:49:43.109Z,584
2019-06-08T20:00:19.126Z,605
2019-06-08T20:05:30.691Z,650
2019-06-08T20:10:47.642Z,663
2019-06-08T20:16:02.247Z,624
2019-06-08T20:21:14.016Z,609
2019-06-08T20:26:27.969Z,604
2019-06-08T20:31:39.711Z,605
2019-06-08T20:36:52.752Z,605
2019-06-08T20:42:04.563Z,602
2019-06-08T20:47:22.571Z,607
2019-06-08T20:52:33.599Z,598
2019-06-08T20:57:45.195Z,589
2019-06-08T21:03:02.904Z,578
2019-06-08T21:08:14.642Z,559
2019-06-08T21:13:28.413Z,557
2019-06-08T21:18:39.926Z,552
2019-06-08T21:23:54.238Z,548
2019-06-08T21:29:11.717Z,555
2019-06-08T21:34:23.286Z,561
2019-06-08T21:39:36.592Z,558
2019-06-08T21:44:51.885Z,560
2019-06-08T21:50:15.575Z,544
2019-06-08T21:55:29.406Z,543
2019-06-08T22:00:49.504Z,527
2019-06-08T22:06:03.739Z,521
2019-06-08T22:11:17.576Z,523
2019-06-08T22:16:29.236Z,519
2019-06-08T22:21:40.557Z,519
2019-06-08T22:26:53.735Z,514
2019-06-08T22:32:10.895Z,506
2019-06-08T22:37:23.256Z,510
2019-06-08T22:42:41.371Z,520
2019-06-08T22:47:54.244Z,530
2019-06-08T22:53:12.210Z,536
2019-06-08T22:58:23.724Z,536
2019-06-08T23:03:35.023Z,535
2019-06-08T23:08:48.013Z,524
2019-06-08T23:14:01.345Z,522
2019-06-08T23:19:26.344Z,540
2019-06-08T23:24:38.304Z,567
2019-06-08T23:29:49.728Z,576
2019-06-08T23:35:01.016Z,599
2019-06-08T23:40:13.747Z,622
2019-06-08T23:45:27.140Z,645
2019-06-08T23:50:38.510Z,660
2019-06-08T23:55:49.249Z,657
